Time,TemperatureF,DewpointF,PressureIn,WindDirection,WindDirectionDegrees,WindSpeedMPH,WindSpeedGustMPH,Humidity,HourlyPrecipIn,Conditions,Clouds,dailyrainin,SoftwareType,DateUTC
2016-09-25 00:00:00,45.4,38.9,30.12,ENE,59,0.0,0.0,78,0.00,,,0.00,Wunderground v.1.15,2016-09-25 04:00:00,
2016-09-25 00:10:00,45.2,38.7,30.12,ENE,59,0.0,0.0,78,0.00,,,0.00,Wunderground v.1.15,2016-09-25 04:10:00,
2016-09-25 00:30:00,44.8,38.4,30.12,ENE,59,0.0,0.0,78,0.00,,,0.00,Wunderground v.1.15,2016-09-25 04:30:00,
2016-09-25 00:40:00,44.6,38.2,30.12,ENE,59,0.0,0.0,78,0.00,,,0.00,Wunderground v.1.15,2016-09-25 04:40:00,
2016-09-25 00:50:00,44.3,37.9,30.12,ENE,59,0.0,0.0,78,0.00,,,0.00,Wunderground v.1.15,2016-09-25 04:50:00,
2016-09-25 01:00:00,44.1,37.7,30.12,ENE,59,0.0,0.0,78,0.00,,,0.00,Wunderground v.1.15,2016-09-25 05:00:00,
2016-09-25 01:10:00,43.9,37.5,30.12,ENE,59,0.0,0.0,78,0.00,,,0.00,Wunderground v.1.15,2016-09-25 05:10:00,
2016-09-25 01:20:00,43.6,37.2,30.12,ENE,59,0.0,0.0,78,0.00,,,0.00,Wunderground v.1.15,2016-09-25 05:20:00,
2016-09-25 01:30:00,43.4,37.0,30.13,ENE,59,0.0,0.0,78,0.00,,,0.00,Wunderground v.1.15,2016-09-25 05:30:00,
2016-09-25 01:40:00,43.2,36.8,30.13,ENE,59,0.0,0.0,78,0.00,,,0.00,Wunderground v.1.15,2016-09-25 05:40:00,
2016-09-25 01:50:00,43.0,36.6,30.13,ENE,59,0.0,0.0,78,0.00,,,0.00,Wunderground v.1.15,2016-09-25 05:50:00,
2016-09-25 02:09:00,42.7,36.3,30.13,ENE,59,0.0,0.0,78,0.00,,,0.00,Wunderground v.1.15,2016-09-25 06:09:00,
2016-09-25 02:20:00,42.5,36.1,30.13,ENE,59,0.0,0.0,78,0.00,,,0.00,Wunderground v.1.15,2016-09-25 06:20:00,
2016-09-25 02:30:00,42.2,35.8,30.12,ENE,59,0.0,0.0,78,0.00,,,0.00,Wunderground v.1.15,2016-09-25 06:30:00,
2016-09-25 02:40:00,42.0,35.6,30.13,ENE,59,0.0,0.0,78,0.00,,,0.00,Wunderground v.1.15,2016-09-25 06:40:00,
2016-09-25 02:49:00,41.9,35.5,30.13,ENE,59,0.0,0.0,78,0.00,,,0.00,Wunderground v.1.15,2016-09-25 06:49:00,
2016-09-25 03:00:00,41.7,35.3,30.13,ENE,59,0.0,0.0,78,0.00,,,0.00,Wunderground v.1.15,2016-09-25 07:00:00,
2016-09-25 03:10:00,41.5,35.2,30.13,ENE,59,0.0,0.0,78,0.00,,,0.00,Wunderground v.1.15,2016-09-25 07:10:00,
2016-09-25 03:20:00,41.3,35.0,30.13,ENE,59,0.0,0.0,78,0.00,,,0.00,Wunderground v.1.15,2016-09-25 07:20:00,
2016-09-25 03:40:00,41.0,34.7,30.14,ENE,59,0.0,0.0,78,0.00,,,0.00,Wunderground v.1.15,2016-09-25 07:40:00,
2016-09-25 03:50:00,40.9,34.6,30.13,ENE,59,0.0,0.0,78,0.00,,,0.00,Wunderground v.1.15,2016-09-25 07:50:00,
2016-09-25 04:00:00,40.8,34.5,30.14,ENE,59,0.0,0.0,78,0.00,,,0.00,Wunderground v.1.15,2016-09-25 08:00:00,
2016-09-25 04:10:00,40.7,34.4,30.14,ENE,59,0.0,0.0,78,0.00,,,0.00,Wunderground v.1.15,2016-09-25 08:10:00,
2016-09-25 04:20:00,40.6,34.3,30.14,ENE,59,0.0,0.0,78,0.00,,,0.00,Wunderground v.1.15,2016-09-25 08:20:00,
2016-09-25 04:30:00,40.4,34.1,30.14,ENE,59,0.0,0.0,78,0.00,,,0.00,Wunderground v.1.15,2016-09-25 08:30:00,
2016-09-25 04:40:00,40.3,34.3,30.13,ENE,59,0.0,0.0,79,0.00,,,0.00,Wunderground v.1.15,2016-09-25 08:40:00,
2016-09-25 04:50:00,40.0,33.7,30.13,ENE,59,0.0,0.0,78,0.00,,,0.00,Wunderground v.1.15,2016-09-25 08:50:00,
2016-09-25 05:00:00,39.8,33.5,30.14,ENE,60,0.0,0.0,78,0.00,,,0.00,Wunderground v.1.15,2016-09-25 09:00:00,
2016-09-25 05:09:00,39.8,33.5,30.14,ENE,59,0.0,0.0,78,0.00,,,0.00,Wunderground v.1.15,2016-09-25 09:09:00,
2016-09-25 05:19:00,39.8,33.5,30.15,ENE,59,0.0,0.0,78,0.00,,,0.00,Wunderground v.1.15,2016-09-25 09:19:00,
2016-09-25 05:30:00,39.7,33.7,30.15,ENE,59,0.0,0.0,79,0.00,,,0.00,Wunderground v.1.15,2016-09-25 09:30:00,
2016-09-25 05:40:00,39.4,33.4,30.15,ENE,59,0.0,0.0,79,0.00,,,0.00,Wunderground v.1.15,2016-09-25 09:40:00,
2016-09-25 06:00:00,39.3,33.0,30.15,ENE,59,0.0,0.0,78,0.00,,,0.00,Wunderground v.1.15,2016-09-25 10:00:00,
2016-09-25 06:10:00,39.1,32.8,30.16,ENE,59,0.0,0.0,78,0.00,,,0.00,Wunderground v.1.15,2016-09-25 10:10:00,
2016-09-25 06:19:00,39.0,32.7,30.16,ENE,59,0.0,0.0,78,0.00,,,0.00,Wunderground v.1.15,2016-09-25 10:19:00,
2016-09-25 06:30:00,39.0,32.7,30.15,ENE,59,0.0,0.0,78,0.00,,,0.00,Wunderground v.1.15,2016-09-25 10:30:00,
2016-09-25 06:40:00,38.9,32.9,30.16,ENE,59,0.0,0.0,79,0.00,,,0.00,Wunderground v.1.15,2016-09-25 10:40:00,
2016-09-25 06:50:00,38.8,32.8,30.16,ENE,59,0.0,0.0,79,0.00,,,0.00,Wunderground v.1.15,2016-09-25 10:50:00,
2016-09-25 07:00:00,38.6,32.3,30.17,ENE,59,0.0,0.0,78,0.00,,,0.00,Wunderground v.1.15,2016-09-25 11:00:00,
2016-09-25 07:10:00,38.5,32.6,30.17,ENE,59,0.0,0.0,79,0.00,,,0.00,Wunderground v.1.15,2016-09-25 11:10:00,
2016-09-25 07:20:00,38.7,32.7,30.17,ENE,59,0.0,0.0,79,0.00,,,0.00,Wunderground v.1.15,2016-09-25 11:20:00,
2016-09-25 07:30:00,38.9,32.9,30.17,ENE,59,0.0,0.0,79,0.00,,,0.00,Wunderground v.1.15,2016-09-25 11:30:00,
2016-09-25 07:40:00,39.3,33.3,30.18,ENE,59,0.0,0.0,79,0.00,,,0.00,Wunderground v.1.15,2016-09-25 11:40:00,
2016-09-25 07:50:00,39.8,33.8,30.18,ENE,59,0.0,0.0,79,0.00,,,0.00,Wunderground v.1.15,2016-09-25 11:50:00,
2016-09-25 08:00:00,40.6,34.6,30.17,ENE,59,0.0,0.0,79,0.00,,,0.00,Wunderground v.1.15,2016-09-25 12:00:00,
2016-09-25 08:10:00,41.4,35.4,30.17,ENE,59,0.0,0.0,79,0.00,,,0.00,Wunderground v.1.15,2016-09-25 12:10:00,
2016-09-25 08:20:00,42.1,36.1,30.17,ENE,59,0.0,0.0,79,0.00,,,0.00,Wunderground v.1.15,2016-09-25 12:20:00,
2016-09-25 08:30:00,43.0,36.9,30.17,ENE,59,0.0,0.0,79,0.00,,,0.00,Wunderground v.1.15,2016-09-25 12:30:00,
2016-09-25 08:40:00,43.8,37.7,30.17,ENE,59,0.0,0.0,79,0.00,,,0.00,Wunderground v.1.15,2016-09-25 12:40:00,
2016-09-25 08:50:00,44.9,39.1,30.17,ENE,59,0.0,0.0,80,0.00,,,0.00,Wunderground v.1.15,2016-09-25 12:50:00,
2016-09-25 09:10:00,47.4,40.9,30.17,NNW,340,1.0,1.0,78,0.00,,,0.00,Wunderground v.1.15,2016-09-25 13:10:00,
2016-09-25 09:20:00,48.9,42.3,30.17,NW,321,1.0,1.0,78,0.00,,,0.00,Wunderground v.1.15,2016-09-25 13:20:00,
2016-09-25 09:30:00,50.5,43.6,30.17,NNW,333,0.0,3.0,77,0.00,,,0.00,Wunderground v.1.15,2016-09-25 13:30:00,